SAS4139 ENAL-ENBR
Flight info
| Callsign | SAS4139 |
|---|---|
| Flight time | 0h 34m |
| Altitude | 30000 |
| Route | TUTOP DCT NIDGI |
| Aircraft | A319/M-SDE3FGHIRWY/LB1 |
Departure
| Time | 2026-05-07 22:08 |
|---|---|
| Airport | Ålesund Airport (ENAL) |
Arrival
| Time | 2026-05-07 22:42 |
|---|---|
| Airport | Bergen Airport, Flesland (ENBR) |
| Time | Latitude | Longitude | Altitude | Speed | Heading |
|---|---|---|---|---|---|
| 2026-05-07 21:48 | 62.55912 | 6.11484 | 79 ft | 0 kts | 154° |
| 2026-05-07 22:01 | 62.55913 | 6.11483 | 79 ft | 1 kts | 154° |
| 2026-05-07 22:01 | 62.55926 | 6.11469 | 82 ft | 3 kts | 154° |
| 2026-05-07 22:01 | 62.55945 | 6.11450 | 83 ft | 3 kts | 154° |
| 2026-05-07 22:01 | 62.55959 | 6.11434 | 84 ft | 1 kts | 154° |
| 2026-05-07 22:02 | 62.55960 | 6.11433 | 84 ft | 0 kts | 154° |
| 2026-05-07 22:04 | 62.55953 | 6.11432 | 83 ft | 1 kts | 192° |
| 2026-05-07 22:04 | 62.55939 | 6.11342 | 81 ft | 11 kts | 258° |
| 2026-05-07 22:04 | 62.55909 | 6.11114 | 81 ft | 19 kts | 255° |
| 2026-05-07 22:05 | 62.55932 | 6.10808 | 81 ft | 23 kts | 290° |
| 2026-05-07 22:05 | 62.55945 | 6.10721 | 73 ft | 21 kts | 282° |
| 2026-05-07 22:05 | 62.55926 | 6.10516 | 65 ft | 26 kts | 247° |
| 2026-05-07 22:05 | 62.55842 | 6.10111 | 54 ft | 33 kts | 245° |
| 2026-05-07 22:06 | 62.55737 | 6.09621 | 47 ft | 39 kts | 245° |
| 2026-05-07 22:06 | 62.55624 | 6.09162 | 41 ft | 25 kts | 227° |
| 2026-05-07 22:06 | 62.55581 | 6.09028 | 40 ft | 3 kts | 334° |
| 2026-05-07 22:06 | 62.55613 | 6.09063 | 38 ft | 7 kts | 47° |
| 2026-05-07 22:07 | 62.55639 | 6.09180 | 41 ft | 12 kts | 64° |
| 2026-05-07 22:07 | 62.55733 | 6.09605 | 48 ft | 60 kts | 65° |
| 2026-05-07 22:07 | 62.56003 | 6.10844 | 84 ft | 120 kts | 65° |
| 2026-05-07 22:07 | 62.56420 | 6.12737 | 403 ft | 145 kts | 65° |
| 2026-05-07 22:08 | 62.56851 | 6.14732 | 1177 ft | 147 kts | 66° |
| 2026-05-07 22:08 | 62.57320 | 6.16722 | 1955 ft | 150 kts | 62° |
| 2026-05-07 22:08 | 62.57914 | 6.18766 | 2435 ft | 171 kts | 60° |
| 2026-05-07 22:08 | 62.58566 | 6.21087 | 2944 ft | 191 kts | 61° |
| 2026-05-07 22:09 | 62.59309 | 6.23750 | 3434 ft | 221 kts | 60° |
| 2026-05-07 22:09 | 62.60120 | 6.26774 | 4166 ft | 239 kts | 68° |
| 2026-05-07 22:09 | 62.60270 | 6.30342 | 5134 ft | 243 kts | 108° |
| 2026-05-07 22:09 | 62.59362 | 6.33336 | 6191 ft | 241 kts | 147° |
| 2026-05-07 22:10 | 62.57806 | 6.34432 | 7238 ft | 239 kts | 184° |
| 2026-05-07 22:10 | 62.56280 | 6.33166 | 8317 ft | 241 kts | 221° |
| 2026-05-07 22:10 | 62.55156 | 6.30434 | 9461 ft | 245 kts | 228° |
| 2026-05-07 22:10 | 62.53733 | 6.28357 | 10456 ft | 252 kts | 201° |
| 2026-05-07 22:11 | 62.52082 | 6.27028 | 11503 ft | 254 kts | 203° |
| 2026-05-07 22:11 | 62.50449 | 6.25495 | 12527 ft | 257 kts | 206° |
| 2026-05-07 22:11 | 62.48808 | 6.23870 | 13540 ft | 261 kts | 206° |
| 2026-05-07 22:11 | 62.47161 | 6.22156 | 14457 ft | 264 kts | 212° |
| 2026-05-07 22:12 | 62.45634 | 6.19785 | 15026 ft | 280 kts | 220° |
| 2026-05-07 22:12 | 62.44063 | 6.17109 | 15337 ft | 304 kts | 220° |
| 2026-05-07 22:12 | 62.42339 | 6.14198 | 15688 ft | 323 kts | 220° |
| 2026-05-07 22:12 | 62.40539 | 6.11202 | 16403 ft | 329 kts | 220° |
| 2026-05-07 22:13 | 62.38712 | 6.08181 | 17245 ft | 332 kts | 220° |
| 2026-05-07 22:13 | 62.36868 | 6.05147 | 18106 ft | 335 kts | 220° |
| 2026-05-07 22:13 | 62.35010 | 6.02099 | 18878 ft | 337 kts | 221° |
| 2026-05-07 22:13 | 62.33134 | 5.99020 | 19624 ft | 341 kts | 221° |
| 2026-05-07 22:14 | 62.31247 | 5.95919 | 20346 ft | 343 kts | 221° |
| 2026-05-07 22:14 | 62.29339 | 5.92786 | 21057 ft | 346 kts | 221° |
| 2026-05-07 22:14 | 62.27415 | 5.89633 | 21770 ft | 350 kts | 221° |
| 2026-05-07 22:14 | 62.25465 | 5.86449 | 22473 ft | 354 kts | 221° |
| 2026-05-07 22:15 | 62.25371 | 5.86295 | 22502 ft | 354 kts | 221° |
| 2026-05-07 22:15 | 62.23949 | 5.83988 | 23017 ft | 356 kts | 221° |
| 2026-05-07 22:15 | 62.21960 | 5.80760 | 23680 ft | 360 kts | 222° |
| 2026-05-07 22:15 | 62.19957 | 5.77509 | 24236 ft | 363 kts | 222° |
| 2026-05-07 22:16 | 62.17940 | 5.74236 | 24790 ft | 365 kts | 222° |
| 2026-05-07 22:16 | 62.15910 | 5.70942 | 25364 ft | 367 kts | 222° |
| 2026-05-07 22:16 | 62.13869 | 5.67635 | 25930 ft | 370 kts | 222° |
| 2026-05-07 22:16 | 62.11818 | 5.64318 | 26480 ft | 371 kts | 222° |
| 2026-05-07 22:17 | 62.09753 | 5.60985 | 27022 ft | 374 kts | 222° |
| 2026-05-07 22:17 | 62.07670 | 5.57635 | 27556 ft | 376 kts | 222° |
| 2026-05-07 22:17 | 62.05572 | 5.54267 | 28086 ft | 379 kts | 222° |
| 2026-05-07 22:17 | 62.03457 | 5.50879 | 28620 ft | 381 kts | 222° |
| 2026-05-07 22:18 | 62.01314 | 5.47503 | 29145 ft | 386 kts | 219° |
| 2026-05-07 22:18 | 61.96319 | 5.42696 | 30048 ft | 403 kts | 205° |
| 2026-05-07 22:19 | 61.91108 | 5.39090 | 30117 ft | 381 kts | 205° |
| 2026-05-07 22:19 | 61.86166 | 5.35644 | 30117 ft | 374 kts | 206° |
| 2026-05-07 22:20 | 61.81236 | 5.32166 | 30115 ft | 373 kts | 206° |
| 2026-05-07 22:20 | 61.76279 | 5.28677 | 30069 ft | 372 kts | 206° |
| 2026-05-07 22:20 | 61.73856 | 5.27003 | 29910 ft | 361 kts | 205° |
| 2026-05-07 22:21 | 61.71409 | 5.25907 | 29695 ft | 364 kts | 193° |
| 2026-05-07 22:21 | 61.68807 | 5.25703 | 28404 ft | 384 kts | 188° |
| 2026-05-07 22:21 | 61.66056 | 5.25667 | 26842 ft | 405 kts | 187° |
| 2026-05-07 22:21 | 61.63164 | 5.25735 | 25099 ft | 426 kts | 185° |
| 2026-05-07 22:22 | 61.60130 | 5.25859 | 23405 ft | 444 kts | 184° |
| 2026-05-07 22:22 | 61.57036 | 5.26008 | 22068 ft | 445 kts | 184° |
| 2026-05-07 22:22 | 61.53956 | 5.26150 | 21005 ft | 439 kts | 184° |
| 2026-05-07 22:22 | 61.50921 | 5.26266 | 20021 ft | 433 kts | 184° |
| 2026-05-07 22:23 | 61.47930 | 5.26348 | 19104 ft | 426 kts | 184° |
| 2026-05-07 22:23 | 61.44997 | 5.26402 | 18160 ft | 420 kts | 184° |
| 2026-05-07 22:23 | 61.42093 | 5.26443 | 17127 ft | 414 kts | 184° |
| 2026-05-07 22:23 | 61.39235 | 5.26479 | 16128 ft | 408 kts | 183° |
| 2026-05-07 22:24 | 61.36415 | 5.26512 | 15203 ft | 402 kts | 183° |
| 2026-05-07 22:24 | 61.33679 | 5.26553 | 14341 ft | 397 kts | 182° |
| 2026-05-07 22:24 | 61.30891 | 5.26600 | 13453 ft | 392 kts | 182° |
| 2026-05-07 22:24 | 61.28218 | 5.26648 | 12593 ft | 386 kts | 182° |
| 2026-05-07 22:25 | 61.25551 | 5.26698 | 11726 ft | 381 kts | 182° |
| 2026-05-07 22:25 | 61.22920 | 5.26746 | 10883 ft | 375 kts | 181° |
| 2026-05-07 22:25 | 61.20335 | 5.26794 | 10028 ft | 369 kts | 181° |
| 2026-05-07 22:25 | 61.17786 | 5.26836 | 9072 ft | 364 kts | 181° |
| 2026-05-07 22:26 | 61.15277 | 5.26881 | 8160 ft | 357 kts | 181° |
| 2026-05-07 22:26 | 61.12813 | 5.26934 | 7280 ft | 351 kts | 180° |
| 2026-05-07 22:26 | 61.10387 | 5.26990 | 6388 ft | 346 kts | 180° |
| 2026-05-07 22:26 | 61.07999 | 5.27042 | 5430 ft | 341 kts | 180° |
| 2026-05-07 22:27 | 61.05637 | 5.27085 | 4451 ft | 337 kts | 180° |
| 2026-05-07 22:27 | 61.03298 | 5.27123 | 3558 ft | 334 kts | 179° |
| 2026-05-07 22:27 | 61.01027 | 5.27159 | 3197 ft | 317 kts | 179° |
| 2026-05-07 22:27 | 60.98896 | 5.27194 | 3027 ft | 297 kts | 179° |
| 2026-05-07 22:28 | 60.96895 | 5.27228 | 2978 ft | 276 kts | 179° |
| 2026-05-07 22:28 | 60.95046 | 5.27259 | 2995 ft | 257 kts | 179° |
| 2026-05-07 22:28 | 60.93299 | 5.27288 | 3173 ft | 249 kts | 179° |
| 2026-05-07 22:28 | 60.91570 | 5.27314 | 3421 ft | 248 kts | 179° |
| 2026-05-07 22:29 | 60.89858 | 5.27344 | 3681 ft | 248 kts | 179° |
| 2026-05-07 22:29 | 60.88119 | 5.27374 | 3911 ft | 249 kts | 179° |
| 2026-05-07 22:29 | 60.86369 | 5.27410 | 4346 ft | 253 kts | 179° |
| 2026-05-07 22:29 | 60.84613 | 5.27444 | 5616 ft | 252 kts | 180° |
| 2026-05-07 22:30 | 60.82853 | 5.27474 | 6850 ft | 254 kts | 181° |
| 2026-05-07 22:30 | 60.81072 | 5.27503 | 7972 ft | 259 kts | 181° |
| 2026-05-07 22:30 | 60.79250 | 5.27533 | 9063 ft | 265 kts | 182° |
| 2026-05-07 22:30 | 60.77379 | 5.27562 | 9744 ft | 272 kts | 182° |
| 2026-05-07 22:31 | 60.75483 | 5.27594 | 9943 ft | 274 kts | 182° |
| 2026-05-07 22:31 | 60.73579 | 5.27629 | 9667 ft | 276 kts | 182° |
| 2026-05-07 22:31 | 60.71660 | 5.27667 | 9289 ft | 274 kts | 182° |
| 2026-05-07 22:31 | 60.69753 | 5.27702 | 8800 ft | 275 kts | 182° |
| 2026-05-07 22:32 | 60.67863 | 5.27739 | 8513 ft | 270 kts | 181° |
| 2026-05-07 22:32 | 60.65995 | 5.27776 | 8140 ft | 266 kts | 181° |
| 2026-05-07 22:32 | 60.64148 | 5.27811 | 7514 ft | 264 kts | 181° |
| 2026-05-07 22:32 | 60.62316 | 5.27844 | 6916 ft | 262 kts | 181° |
| 2026-05-07 22:33 | 60.60511 | 5.27877 | 6360 ft | 258 kts | 180° |
| 2026-05-07 22:33 | 60.58732 | 5.27910 | 5852 ft | 254 kts | 180° |
| 2026-05-07 22:33 | 60.56969 | 5.27942 | 5393 ft | 253 kts | 180° |
| 2026-05-07 22:33 | 60.55243 | 5.27975 | 5127 ft | 240 kts | 180° |
| 2026-05-07 22:34 | 60.53647 | 5.28008 | 4952 ft | 225 kts | 180° |
| 2026-05-07 22:34 | 60.52094 | 5.27679 | 4816 ft | 222 kts | 197° |
| 2026-05-07 22:34 | 60.50741 | 5.26317 | 4682 ft | 221 kts | 217° |
| 2026-05-07 22:34 | 60.49679 | 5.24026 | 4194 ft | 229 kts | 237° |
| 2026-05-07 22:35 | 60.48915 | 5.21208 | 3898 ft | 227 kts | 239° |
| 2026-05-07 22:35 | 60.47929 | 5.18809 | 3696 ft | 218 kts | 219° |
| 2026-05-07 22:35 | 60.46657 | 5.17270 | 3503 ft | 211 kts | 200° |
| 2026-05-07 22:35 | 60.45240 | 5.16653 | 3272 ft | 207 kts | 182° |
| 2026-05-07 22:36 | 60.43812 | 5.16923 | 3005 ft | 206 kts | 171° |
| 2026-05-07 22:36 | 60.42400 | 5.17405 | 2726 ft | 205 kts | 171° |
| 2026-05-07 22:36 | 60.40994 | 5.17882 | 2439 ft | 204 kts | 171° |
| 2026-05-07 22:36 | 60.39594 | 5.18356 | 2154 ft | 203 kts | 171° |
| 2026-05-07 22:37 | 60.38210 | 5.18810 | 1865 ft | 200 kts | 173° |
| 2026-05-07 22:37 | 60.36861 | 5.18582 | 1715 ft | 189 kts | 191° |
| 2026-05-07 22:37 | 60.35618 | 5.18029 | 1703 ft | 178 kts | 192° |
| 2026-05-07 22:37 | 60.34427 | 5.17469 | 1707 ft | 176 kts | 193° |
| 2026-05-07 22:38 | 60.33221 | 5.16995 | 1714 ft | 176 kts | 186° |
| 2026-05-07 22:38 | 60.31997 | 5.16809 | 1713 ft | 176 kts | 183° |
| 2026-05-07 22:38 | 60.30771 | 5.16789 | 1711 ft | 176 kts | 179° |
| 2026-05-07 22:38 | 60.29543 | 5.16871 | 1714 ft | 176 kts | 178° |
| 2026-05-07 22:39 | 60.28321 | 5.16966 | 1726 ft | 176 kts | 178° |
| 2026-05-07 22:39 | 60.27107 | 5.17063 | 1635 ft | 169 kts | 178° |
| 2026-05-07 22:39 | 60.25971 | 5.17154 | 1555 ft | 156 kts | 178° |
| 2026-05-07 22:39 | 60.24918 | 5.17267 | 1481 ft | 149 kts | 174° |
| 2026-05-07 22:40 | 60.24021 | 5.18177 | 1486 ft | 147 kts | 130° |
| 2026-05-07 22:40 | 60.23831 | 5.20131 | 1259 ft | 148 kts | 78° |
| 2026-05-07 22:40 | 60.24412 | 5.21720 | 898 ft | 137 kts | 38° |
| 2026-05-07 22:40 | 60.25225 | 5.22539 | 708 ft | 127 kts | 18° |
| 2026-05-07 22:41 | 60.26090 | 5.22772 | 594 ft | 125 kts | 1° |
| 2026-05-07 22:41 | 60.26950 | 5.22615 | 429 ft | 124 kts | 351° |
| 2026-05-07 22:41 | 60.27797 | 5.22329 | 267 ft | 123 kts | 352° |
| 2026-05-07 22:41 | 60.28625 | 5.22058 | 165 ft | 117 kts | 350° |
| 2026-05-07 22:42 | 60.29258 | 5.21844 | 157 ft | 53 kts | 350° |
| 2026-05-07 22:42 | 60.29381 | 5.21912 | 156 ft | 11 kts | 82° |
| 2026-05-07 22:42 | 60.29390 | 5.22075 | 158 ft | 13 kts | 97° |
| 2026-05-07 22:42 | 60.29308 | 5.22145 | 162 ft | 15 kts | 169° |
| 2026-05-07 22:43 | 60.29198 | 5.22186 | 163 ft | 18 kts | 171° |
| 2026-05-07 22:43 | 60.29056 | 5.22234 | 163 ft | 23 kts | 171° |
| 2026-05-07 22:43 | 60.28901 | 5.22287 | 162 ft | 23 kts | 171° |
| 2026-05-07 22:43 | 60.28739 | 5.22341 | 163 ft | 22 kts | 172° |
| 2026-05-07 22:44 | 60.28697 | 5.22475 | 166 ft | 15 kts | 57° |
| 2026-05-07 22:44 | 60.28733 | 5.22672 | 170 ft | 14 kts | 75° |
| 2026-05-07 22:44 | 60.28766 | 5.22769 | 173 ft | 11 kts | 49° |
| 2026-05-07 22:44 | 60.28777 | 5.22867 | 173 ft | 5 kts | 80° |
| 2026-05-07 22:45 | 60.28780 | 5.22899 | 173 ft | 0 kts | 79° |